Time;durP1;ratioP1;P1;durP2;ratioP2;P2;SDS_P1;SDS_P2;PMS_P1;PMS_P2;Temp;Humidity;BMP_temperature;BMP_pressure;BME280_temperature;BME280_humidity;BME280_pressure;Samples;Min_cycle;Max_cycle;Signal;HPM_P1;HPM_P2
2022/10/17 00:09:51;;;;;;;12;16.5;;;;;;;11.2;86.3;99820;;;;
2022/10/17 00:20:50;;;;;;;12;16.5;;;;;;;11.1;86.1;99820;;;;
2022/10/17 00:31:51;;;;;;;12;20.2;;;;;;;11;86.7;99820;;;;
2022/10/17 00:41:50;;;;;;;12;20.2;;;;;;;10.9;86.5;99840;;;;
2022/10/17 00:52:50;;;;;;;12;20.2;;;;;;;10.7;86.4;99830;;;;
2022/10/17 01:03:51;;;;;;;11.9;16.1;;;;;;;10.6;87;99840;;;;
2022/10/17 01:14:50;;;;;;;11.9;16.1;;;;;;;10.6;87.4;99830;;;;
2022/10/17 01:24:50;;;;;;;10.4;14.4;;;;;;;10.7;88.2;99830;;;;
2022/10/17 01:35:50;;;;;;;10.4;14.4;;;;;;;10.8;89.3;99830;;;;
2022/10/17 01:45:50;;;;;;;10.4;14.4;;;;;;;10.9;89.2;99830;;;;
2022/10/17 01:55:51;;;;;;;9;12.3;;;;;;;10.8;88.1;99840;;;;
2022/10/17 02:06:50;;;;;;;9;12.3;;;;;;;10.6;87.4;99840;;;;
2022/10/17 02:16:50;;;;;;;9;12.3;;;;;;;10.5;87.2;99840;;;;
2022/10/17 02:26:50;;;;;;;8.3;11.9;;;;;;;10.4;87.3;99840;;;;
2022/10/17 02:37:50;;;;;;;8.3;11.9;;;;;;;10.3;87.5;99840;;;;
2022/10/17 02:47:51;;;;;;;8.3;11.9;;;;;;;10.2;87.4;99840;;;;
2022/10/17 02:58:51;;;;;;;7;10.3;;;;;;;10.2;88.4;99850;;;;
2022/10/17 03:09:51;;;;;;;7;10.3;;;;;;;10.2;88.7;99860;;;;
2022/10/17 03:20:50;;;;;;;7;10.3;;;;;;;10.1;88.3;99870;;;;
2022/10/17 03:30:50;;;;;;;6.5;9.8;;;;;;;10;87.9;99880;;;;
2022/10/17 03:41:51;;;;;;;6.5;9.8;;;;;;;9.9;88;99890;;;;
2022/10/17 03:51:50;;;;;;;6.5;9.8;;;;;;;9.8;88.5;99900;;;;
2022/10/17 04:01:51;;;;;;;6.5;10.1;;;;;;;9.9;89.4;99900;;;;
2022/10/17 04:11:51;;;;;;;6.5;10.1;;;;;;;10;89.6;99900;;;;
2022/10/17 04:22:51;;;;;;;8.1;12.7;;;;;;;9.9;89;99910;;;;
2022/10/17 04:33:50;;;;;;;8.1;12.7;;;;;;;9.8;89.5;99910;;;;
2022/10/17 04:43:50;;;;;;;8.1;12.7;;;;;;;9.8;89.3;99910;;;;
2022/10/17 04:53:51;;;;;;;7.8;11.6;;;;;;;9.7;89.2;99910;;;;
2022/10/17 05:04:50;;;;;;;7.8;11.6;;;;;;;9.7;89.3;99930;;;;
2022/10/17 05:14:51;;;;;;;7.8;11.6;;;;;;;9.6;89.1;99940;;;;
2022/10/17 05:25:50;;;;;;;7.5;11.9;;;;;;;9.5;88.4;99940;;;;
2022/10/17 05:36:51;;;;;;;7.5;11.9;;;;;;;9.6;88.5;99940;;;;
2022/10/17 05:47:51;;;;;;;7.5;11.9;;;;;;;9.9;89.7;99950;;;;
2022/10/17 05:57:52;;;;;;;9.7;15.3;;;;;;;10.1;89.9;99960;;;;
2022/10/17 06:08:51;;;;;;;9.7;15.3;;;;;;;10.3;89.6;99980;;;;
2022/10/17 06:19:50;;;;;;;9.7;15.3;;;;;;;10.6;89.5;100000;;;;
2022/10/17 06:29:51;;;;;;;11;13.8;;;;;;;11;89.3;100000;;;;
2022/10/17 06:39:51;;;;;;;11;13.8;;;;;;;11.4;89;100010;;;;
2022/10/17 06:49:51;;;;;;;11;13.8;;;;;;;11.8;88.6;100020;;;;
2022/10/17 06:59:52;;;;;;;12.9;17.4;;;;;;;12.2;88;100020;;;;
2022/10/17 07:10:51;;;;;;;12.9;17.4;;;;;;;12.8;87.6;100030;;;;
2022/10/17 07:20:51;;;;;;;12.9;17.4;;;;;;;13.2;86.3;100040;;;;
2022/10/17 07:31:51;;;;;;;14.3;18.2;;;;;;;13.7;85.2;100040;;;;
2022/10/17 07:41:51;;;;;;;14.3;18.2;;;;;;;14.4;84.6;100040;;;;
2022/10/17 07:52:51;;;;;;;14.3;18.2;;;;;;;14.9;83;100030;;;;
2022/10/17 08:03:51;;;;;;;14.3;18.2;;;;;;;15.4;80.6;100030;;;;
2022/10/17 08:13:51;;;;;;;14.3;18.2;;;;;;;16;78.7;100050;;;;
2022/10/17 08:23:51;;;;;;;12.5;16.4;;;;;;;16.5;77.8;100040;;;;
2022/10/17 08:34:51;;;;;;;12.5;16.4;;;;;;;17;77.5;100040;;;;
2022/10/17 08:44:51;;;;;;;12.5;16.4;;;;;;;17.6;75.6;100040;;;;
2022/10/17 08:54:51;;;;;;;9.9;13.9;;;;;;;18;74.5;100040;;;;
2022/10/17 09:05:51;;;;;;;9.9;13.9;;;;;;;18.4;72.2;100040;;;;
2022/10/17 09:16:51;;;;;;;9.9;13.9;;;;;;;18.9;72.3;100040;;;;
2022/10/17 09:27:51;;;;;;;10.5;17.8;;;;;;;19.3;69.8;100040;;;;
2022/10/17 09:37:51;;;;;;;10.5;17.8;;;;;;;19.8;70.4;100040;;;;
2022/10/17 09:47:51;;;;;;;10.5;17.8;;;;;;;20.2;67.9;100040;;;;
2022/10/17 09:57:51;;;;;;;8.3;11.6;;;;;;;20.7;64.7;100040;;;;
2022/10/17 10:08:51;;;;;;;8.3;11.6;;;;;;;21.1;63.2;100030;;;;
2022/10/17 10:19:51;;;;;;;8.3;11.6;;;;;;;21.4;60.5;100030;;;;
2022/10/17 10:29:51;;;;;;;7.4;11;;;;;;;21.8;61.7;100020;;;;
2022/10/17 10:40:51;;;;;;;7.4;11;;;;;;;22.2;58;100020;;;;
2022/10/17 10:50:51;;;;;;;7.4;11;;;;;;;22.5;60.7;100010;;;;
2022/10/17 11:00:51;;;;;;;5.6;8.9;;;;;;;22.8;58;100000;;;;
2022/10/17 11:10:51;;;;;;;5.6;8.9;;;;;;;22.9;56.3;100000;;;;
2022/10/17 11:20:51;;;;;;;5.6;8.9;;;;;;;23.1;56.1;99980;;;;
2022/10/17 11:31:51;;;;;;;6.1;10.6;;;;;;;23.3;55.8;99980;;;;
2022/10/17 11:41:51;;;;;;;6.1;10.6;;;;;;;23.6;54.9;99980;;;;
2022/10/17 11:52:51;;;;;;;6.4;11.2;;;;;;;23.8;54.4;99970;;;;
2022/10/17 12:02:51;;;;;;;6.4;11.2;;;;;;;24;55;99960;;;;
2022/10/17 12:13:51;;;;;;;6.4;11.2;;;;;;;23.9;51.8;99960;;;;
2022/10/17 12:23:51;;;;;;;6.1;9.5;;;;;;;24.1;54;99960;;;;
2022/10/17 12:34:51;;;;;;;6.1;9.5;;;;;;;24.1;52.8;99940;;;;
2022/10/17 12:44:51;;;;;;;6.1;9.5;;;;;;;24.2;53.1;99940;;;;
2022/10/17 12:54:51;;;;;;;6.6;10.1;;;;;;;24.3;53.3;99930;;;;
2022/10/17 13:04:51;;;;;;;6.6;10.1;;;;;;;24.4;54.4;99930;;;;
2022/10/17 13:14:51;;;;;;;6.6;10.1;;;;;;;24.4;53.3;99930;;;;
2022/10/17 13:25:51;;;;;;;6.3;11;;;;;;;24.4;53.9;99920;;;;
2022/10/17 13:36:51;;;;;;;6.3;11;;;;;;;24.5;53.4;99920;;;;
2022/10/17 13:46:51;;;;;;;6.3;11;;;;;;;24.4;50.5;99920;;;;
2022/10/17 13:56:51;;;;;;;5.8;9.6;;;;;;;24.3;52.2;99920;;;;
2022/10/17 14:07:51;;;;;;;5.8;9.6;;;;;;;24.2;51.8;99920;;;;
2022/10/17 14:17:51;;;;;;;5.8;9.6;;;;;;;24.1;53.1;99920;;;;
2022/10/17 14:27:51;;;;;;;4.7;7.5;;;;;;;24;53.9;99920;;;;
2022/10/17 14:38:51;;;;;;;4.7;7.5;;;;;;;23.7;54.3;99920;;;;
2022/10/17 14:49:51;;;;;;;4.7;7.5;;;;;;;23.1;54.9;99920;;;;
2022/10/17 14:59:51;;;;;;;6.1;9;;;;;;;22.4;56.4;99920;;;;
2022/10/17 15:10:51;;;;;;;6.1;9;;;;;;;21.6;58.5;99930;;;;
2022/10/17 15:21:51;;;;;;;6.1;9;;;;;;;20.8;60.3;99920;;;;
2022/10/17 15:32:51;;;;;;;6.3;13.5;;;;;;;20.2;60.8;99930;;;;
2022/10/17 15:43:51;;;;;;;6.3;13.5;;;;;;;19.6;62.5;99930;;;;
2022/10/17 15:53:51;;;;;;;12.4;17.5;;;;;;;19;65;99940;;;;
2022/10/17 16:04:51;;;;;;;12.4;17.5;;;;;;;18.6;67.5;99950;;;;
2022/10/17 16:14:51;;;;;;;12.4;17.5;;;;;;;18.2;69.4;99960;;;;
2022/10/17 16:25:51;;;;;;;14.9;22.1;;;;;;;17.6;70;99960;;;;
2022/10/17 16:35:51;;;;;;;14.9;22.1;;;;;;;17.2;71.6;99970;;;;
2022/10/17 16:45:51;;;;;;;14.9;22.1;;;;;;;16.9;72.7;99960;;;;
2022/10/17 16:56:51;;;;;;;32.3;45.1;;;;;;;16.8;72.4;99960;;;;
2022/10/17 17:07:51;;;;;;;32.3;45.1;;;;;;;16.9;72.9;99950;;;;
2022/10/17 17:17:51;;;;;;;32.3;45.1;;;;;;;16.9;72.7;99950;;;;
2022/10/17 17:28:52;;;;;;;12.3;19.2;;;;;;;16.8;72.6;99940;;;;
2022/10/17 17:39:51;;;;;;;12.3;19.2;;;;;;;16.4;72.7;99950;;;;
2022/10/17 17:50:51;;;;;;;12.3;19.2;;;;;;;16;72.9;99950;;;;
2022/10/17 18:01:51;;;;;;;22.6;33.6;;;;;;;15.4;73.4;99950;;;;
2022/10/17 18:12:51;;;;;;;22.6;33.6;;;;;;;14.9;74.3;99950;;;;
2022/10/17 18:22:51;;;;;;;21.6;28.9;;;;;;;14.6;76.8;99950;;;;
2022/10/17 18:33:51;;;;;;;21.6;28.9;;;;;;;14.2;77.3;99960;;;;
2022/10/17 18:44:51;;;;;;;21.6;28.9;;;;;;;14;79.1;99950;;;;
2022/10/17 18:55:51;;;;;;;36.2;45;;;;;;;13.7;80.1;99960;;;;
2022/10/17 19:06:51;;;;;;;36.2;45;;;;;;;13.5;80.6;99960;;;;
2022/10/17 19:16:51;;;;;;;36.2;45;;;;;;;13.4;82.2;99960;;;;
2022/10/17 19:27:51;;;;;;;14.3;19.1;;;;;;;13.3;82.3;99950;;;;
2022/10/17 19:37:51;;;;;;;14.3;19.1;;;;;;;13.2;81.4;99960;;;;
2022/10/17 19:47:51;;;;;;;14.3;19.1;;;;;;;13;81.4;99960;;;;
2022/10/17 19:58:52;;;;;;;11;17.2;;;;;;;12.9;82.4;99960;;;;
2022/10/17 20:08:51;;;;;;;11;17.2;;;;;;;12.8;81.8;99960;;;;
2022/10/17 20:18:51;;;;;;;11;17.2;;;;;;;12.5;83.1;99960;;;;
2022/10/17 20:29:51;;;;;;;9.8;15.8;;;;;;;12.3;82.1;99970;;;;
2022/10/17 20:39:51;;;;;;;9.8;15.8;;;;;;;12.3;83.5;99960;;;;
2022/10/17 20:49:51;;;;;;;9.8;15.8;;;;;;;12.1;83;99970;;;;
2022/10/17 21:00:51;;;;;;;11.9;15;;;;;;;12;84.6;99960;;;;
2022/10/17 21:11:53;;;;;;;11.9;15;;;;;;;11.9;86.2;99960;;;;
2022/10/17 21:21:51;;;;;;;11.9;15;;;;;;;12;86.9;99950;;;;
2022/10/17 21:32:51;;;;;;;18.1;24.7;;;;;;;11.9;87.1;99940;;;;
2022/10/17 21:42:51;;;;;;;18.1;24.7;;;;;;;11.9;86.6;99930;;;;
2022/10/17 21:52:51;;;;;;;16.3;25.1;;;;;;;11.8;86.1;99930;;;;
2022/10/17 22:03:51;;;;;;;16.3;25.1;;;;;;;11.7;87.3;99920;;;;
2022/10/17 22:14:51;;;;;;;16.3;25.1;;;;;;;11.5;85.8;99930;;;;
2022/10/17 22:25:51;;;;;;;15.1;22;;;;;;;11.1;87;99910;;;;
2022/10/17 22:35:51;;;;;;;15.1;22;;;;;;;11;86.7;99900;;;;
2022/10/17 22:45:51;;;;;;;15.1;22;;;;;;;10.9;86.2;99900;;;;
2022/10/17 22:56:51;;;;;;;11.8;17;;;;;;;10.7;86.2;99900;;;;
2022/10/17 23:06:51;;;;;;;11.8;17;;;;;;;10.7;86.4;99900;;;;
2022/10/17 23:16:51;;;;;;;11.8;17;;;;;;;10.5;86.1;99900;;;;
2022/10/17 23:26:51;;;;;;;10.4;13.9;;;;;;;10.4;86.4;99890;;;;
2022/10/17 23:36:51;;;;;;;10.4;13.9;;;;;;;10.4;88.9;99880;;;;
2022/10/17 23:46:51;;;;;;;10.4;13.9;;;;;;;10.4;89.6;99880;;;;
2022/10/17 23:56:51;;;;;;;14.6;20.4;;;;;;;10.4;89.5;99870;;;;
